createdAt,value
2022-10-22T00:01:15.704Z,10.48
2022-10-22T00:03:42.125Z,12.35
2022-10-22T00:06:08.552Z,10.48
2022-10-22T00:08:35.021Z,10.82
2022-10-22T00:11:08.926Z,11.00
2022-10-22T00:13:35.373Z,10.23
2022-10-22T00:16:01.776Z,10.13
2022-10-22T00:18:28.169Z,9.88
2022-10-22T00:20:54.545Z,9.85
2022-10-22T00:23:21.099Z,10.68
2022-10-22T00:25:47.613Z,10.20
2022-10-22T00:28:14.016Z,10.40
2022-10-22T00:30:40.475Z,9.82
2022-10-22T00:33:06.861Z,10.32
2022-10-22T00:35:33.354Z,10.93
2022-10-22T00:37:59.742Z,10.73
2022-10-22T00:40:26.141Z,11.70
2022-10-22T00:42:52.522Z,10.80
2022-10-22T00:45:21.421Z,10.63
2022-10-22T00:48:01.615Z,12.15
2022-10-22T00:50:34.062Z,10.15
2022-10-22T00:53:00.438Z,10.90
2022-10-22T00:55:27.070Z,9.95
2022-10-22T00:57:54.201Z,10.38
2022-10-22T01:00:21.141Z,10.80
2022-10-22T01:02:48.680Z,11.45
2022-10-22T01:05:15.205Z,11.32
2022-10-22T01:07:45.166Z,10.52
2022-10-22T01:10:26.384Z,8.95
2022-10-22T01:13:15.333Z,10.15
2022-10-22T01:15:57.453Z,9.32
2022-10-22T01:18:37.895Z,9.52
2022-10-22T01:21:22.388Z,10.35
2022-10-22T01:23:57.699Z,9.75
2022-10-22T01:26:57.269Z,10.60
2022-10-22T01:29:35.780Z,9.57
2022-10-22T01:32:05.379Z,9.48
2022-10-22T01:36:58.003Z,10.18
2022-10-22T01:39:24.384Z,9.52
2022-10-22T01:41:50.787Z,9.95
2022-10-22T01:47:32.345Z,8.55
2022-10-22T01:50:32.271Z,9.57
2022-10-22T01:53:17.675Z,9.63
2022-10-22T01:56:05.433Z,9.60
2022-10-22T01:58:34.827Z,8.48
2022-10-22T02:01:19.513Z,9.02
2022-10-22T02:04:32.357Z,10.52
2022-10-22T02:07:00.891Z,8.50
2022-10-22T02:09:27.994Z,9.60
2022-10-22T02:11:54.431Z,8.57
2022-10-22T02:14:21.107Z,7.35
2022-10-22T02:16:48.059Z,8.27
2022-10-22T02:19:37.911Z,7.82
2022-10-22T02:22:04.503Z,7.78
2022-10-22T02:24:30.991Z,7.78
2022-10-22T02:27:03.304Z,7.25
2022-10-22T02:29:50.321Z,7.90
2022-10-22T02:32:19.855Z,8.02
2022-10-22T02:34:46.247Z,8.43
2022-10-22T02:37:12.859Z,8.30
2022-10-22T02:39:39.283Z,7.07
2022-10-22T02:42:05.699Z,7.70
2022-10-22T02:44:32.124Z,8.25
2022-10-22T02:46:58.538Z,7.63
2022-10-22T02:49:24.938Z,7.75
2022-10-22T02:51:51.311Z,7.57
2022-10-22T02:54:17.687Z,6.78
2022-10-22T02:56:44.069Z,7.13
2022-10-22T02:59:10.466Z,7.65
2022-10-22T03:01:36.872Z,7.65
2022-10-22T03:04:03.408Z,6.75
2022-10-22T03:06:29.805Z,6.53
2022-10-22T03:08:56.238Z,7.13
2022-10-22T03:11:22.635Z,6.95
2022-10-22T03:13:49.007Z,7.13
2022-10-22T03:16:15.392Z,6.75
2022-10-22T03:18:41.768Z,6.90
2022-10-22T03:21:12.338Z,7.55
2022-10-22T03:23:39.846Z,8.43
2022-10-22T03:26:06.241Z,7.82
2022-10-22T03:28:33.075Z,9.63
2022-10-22T03:30:59.484Z,7.90
2022-10-22T03:33:25.863Z,7.18
2022-10-22T03:35:52.286Z,8.38
2022-10-22T03:38:18.660Z,8.25
2022-10-22T03:40:45.061Z,7.95
2022-10-22T03:43:11.443Z,9.43
2022-10-22T03:48:09.223Z,9.43
2022-10-22T03:50:35.638Z,9.73
2022-10-22T03:53:02.016Z,9.80
2022-10-22T03:55:28.442Z,10.43
2022-10-22T03:57:54.834Z,11.30
2022-10-22T04:00:21.290Z,9.75
2022-10-22T04:02:47.679Z,10.15
2022-10-22T04:07:45.389Z,9.88
2022-10-22T04:10:11.775Z,10.38
2022-10-22T04:12:38.217Z,9.88
2022-10-22T04:15:05.020Z,9.40
2022-10-22T04:17:37.837Z,9.63
2022-10-22T04:20:04.754Z,9.13
2022-10-22T04:22:33.688Z,9.93
2022-10-22T04:25:00.060Z,11.30
2022-10-22T04:27:30.011Z,12.20
2022-10-22T04:29:56.376Z,11.70
2022-10-22T04:32:22.763Z,11.23
2022-10-22T04:34:49.128Z,10.55
2022-10-22T04:37:15.524Z,11.98
2022-10-22T04:39:41.907Z,11.65
2022-10-22T04:42:08.304Z,10.63
2022-10-22T04:44:34.773Z,11.45
2022-10-22T04:47:01.237Z,12.68
2022-10-22T04:49:27.667Z,12.00
2022-10-22T04:51:54.077Z,12.23
2022-10-22T04:54:20.485Z,12.00
2022-10-22T04:56:46.880Z,12.38
2022-10-22T04:59:13.395Z,11.55
2022-10-22T05:01:42.978Z,12.75
2022-10-22T05:04:14.173Z,13.48
2022-10-22T05:06:40.587Z,12.02
2022-10-22T05:09:08.501Z,10.73
2022-10-22T05:11:36.064Z,12.02
2022-10-22T05:14:04.040Z,11.57
2022-10-22T05:16:30.589Z,11.90
2022-10-22T05:18:58.325Z,11.63
2022-10-22T05:21:24.726Z,11.90
2022-10-22T05:23:51.174Z,10.70
2022-10-22T05:26:19.156Z,10.07
2022-10-22T05:28:46.567Z,10.13
2022-10-22T05:31:13.452Z,10.52
2022-10-22T05:33:40.078Z,10.20
2022-10-22T05:36:07.612Z,9.77
2022-10-22T05:38:34.460Z,10.68
2022-10-22T05:41:08.773Z,11.13
2022-10-22T05:43:35.358Z,10.77
2022-10-22T05:46:03.030Z,11.35
2022-10-22T05:48:29.478Z,10.40
2022-10-22T05:50:55.873Z,11.02
2022-10-22T05:53:23.375Z,10.93
2022-10-22T05:55:49.762Z,10.60
2022-10-22T05:58:16.173Z,12.07
2022-10-22T06:00:42.578Z,11.00
2022-10-22T06:03:09.056Z,11.13
2022-10-22T06:05:36.331Z,11.52
2022-10-22T06:08:02.705Z,11.43
2022-10-22T06:10:29.085Z,10.43
2022-10-22T06:12:55.465Z,11.15
2022-10-22T06:15:21.855Z,10.40
2022-10-22T06:17:48.245Z,10.98
2022-10-22T06:20:14.724Z,10.85
2022-10-22T06:22:41.282Z,11.32
2022-10-22T06:25:08.129Z,11.52
2022-10-22T06:27:34.780Z,10.82
2022-10-22T06:30:01.180Z,12.18
2022-10-22T06:32:27.558Z,11.13
2022-10-22T06:34:53.958Z,10.50
2022-10-22T06:37:20.361Z,12.07
2022-10-22T06:39:46.804Z,11.48
2022-10-22T06:42:13.225Z,10.00
2022-10-22T06:44:39.970Z,10.65
2022-10-22T06:47:06.347Z,10.30
2022-10-22T06:49:32.785Z,11.07
2022-10-22T06:51:59.170Z,11.50
2022-10-22T06:54:25.619Z,9.43
2022-10-22T06:56:52.048Z,9.68
2022-10-22T06:59:18.494Z,10.38
2022-10-22T07:01:45.064Z,9.80
2022-10-22T07:04:11.610Z,10.02
2022-10-22T07:06:38.080Z,10.93
2022-10-22T07:09:04.573Z,12.05
2022-10-22T07:11:41.761Z,10.38
2022-10-22T07:14:08.449Z,10.82
2022-10-22T07:16:34.901Z,10.20
2022-10-22T07:19:01.954Z,9.98
2022-10-22T07:21:28.548Z,9.70
2022-10-22T07:23:54.949Z,9.82
2022-10-22T07:26:21.818Z,10.52
2022-10-22T07:28:48.322Z,9.75
2022-10-22T07:31:15.145Z,10.77
2022-10-22T07:33:41.540Z,10.27
2022-10-22T07:36:10.802Z,10.40
2022-10-22T07:38:37.179Z,11.13
2022-10-22T07:41:03.743Z,10.95
2022-10-22T07:43:30.171Z,10.45
2022-10-22T07:45:56.608Z,10.68
2022-10-22T07:48:23.425Z,10.80
2022-10-22T07:50:50.473Z,10.27
2022-10-22T07:53:16.982Z,10.60
2022-10-22T07:55:43.386Z,10.75
2022-10-22T07:58:09.761Z,9.75
2022-10-22T08:00:36.251Z,12.07
2022-10-22T08:03:05.457Z,10.95
2022-10-22T08:05:32.176Z,10.05
2022-10-22T08:07:58.838Z,10.75
2022-10-22T08:10:25.208Z,10.05
2022-10-22T08:12:51.599Z,10.45
2022-10-22T08:15:18.027Z,10.60
2022-10-22T08:17:44.575Z,9.80
2022-10-22T08:20:11.463Z,10.23
2022-10-22T08:22:37.860Z,10.02
2022-10-22T08:25:04.659Z,9.48
2022-10-22T08:27:31.062Z,9.82
2022-10-22T08:29:57.476Z,9.52
2022-10-22T08:32:24.026Z,9.52
2022-10-22T08:34:50.446Z,9.02
2022-10-22T08:37:16.867Z,9.68
2022-10-22T08:39:43.977Z,8.80
2022-10-22T08:42:37.248Z,8.98
2022-10-22T08:45:20.222Z,8.20
2022-10-22T08:48:02.691Z,8.00
2022-10-22T08:50:41.628Z,7.95
2022-10-22T08:53:12.924Z,8.43
2022-10-22T08:55:40.097Z,8.30
2022-10-22T08:58:09.437Z,8.07
2022-10-22T09:00:46.898Z,6.93
2022-10-22T09:03:37.752Z,7.85
2022-10-22T09:06:09.903Z,6.82
2022-10-22T09:08:36.902Z,8.02
2022-10-22T09:11:13.586Z,7.55
2022-10-22T09:13:40.862Z,7.10
2022-10-22T09:16:21.699Z,6.28
2022-10-22T09:19:13.213Z,6.25
2022-10-22T09:21:58.669Z,6.07
2022-10-22T09:24:34.211Z,7.22
2022-10-22T09:29:33.972Z,5.30
2022-10-22T09:32:00.520Z,5.53
2022-10-22T09:34:26.898Z,5.40
2022-10-22T09:37:00.911Z,5.93
2022-10-22T09:39:29.075Z,5.85
2022-10-22T09:41:55.477Z,5.78
2022-10-22T09:44:21.933Z,5.65
2022-10-22T09:46:48.361Z,5.10
2022-10-22T09:49:16.464Z,4.75
2022-10-22T09:51:57.010Z,4.43
2022-10-22T09:54:33.450Z,4.43
2022-10-22T09:57:24.068Z,4.97
2022-10-22T09:59:51.229Z,4.35
2022-10-22T10:02:37.510Z,4.63
2022-10-22T10:05:05.729Z,4.00
2022-10-22T10:07:32.668Z,4.63
2022-10-22T10:09:59.069Z,4.28
2022-10-22T10:12:43.439Z,4.30
2022-10-22T10:15:29.910Z,3.60
2022-10-22T10:18:33.140Z,3.53
2022-10-22T10:21:10.024Z,3.67
2022-10-22T10:23:45.781Z,2.75
2022-10-22T10:26:18.339Z,3.25
2022-10-22T10:28:47.722Z,3.30
2022-10-22T10:31:23.425Z,3.20
2022-10-22T10:33:52.716Z,3.33
2022-10-22T10:36:51.699Z,3.17
2022-10-22T10:39:33.457Z,2.50
2022-10-22T10:42:06.180Z,2.95
2022-10-22T10:44:37.159Z,2.90
2022-10-22T10:47:19.806Z,2.28
2022-10-22T10:49:46.679Z,2.78
2022-10-22T10:52:36.715Z,2.50
2022-10-22T10:55:42.001Z,2.20
2022-10-22T10:58:42.996Z,1.90
2022-10-22T11:01:16.066Z,2.10
2022-10-22T11:04:02.227Z,2.33
2022-10-22T11:06:28.659Z,1.50
2022-10-22T11:08:58.246Z,1.73
2022-10-22T11:11:40.993Z,2.55
2022-10-22T11:14:26.474Z,2.60
2022-10-22T11:17:01.376Z,1.88
2022-10-22T11:19:52.327Z,2.28
2022-10-22T11:22:29.439Z,2.30
2022-10-22T11:27:47.729Z,1.92
2022-10-22T11:30:22.629Z,3.00
2022-10-22T11:32:53.537Z,2.35
2022-10-22T11:35:25.856Z,2.45
2022-10-22T11:38:01.744Z,2.30
2022-10-22T11:40:38.440Z,2.30
2022-10-22T11:43:06.609Z,2.50
2022-10-22T11:45:41.002Z,2.60
2022-10-22T11:48:14.858Z,2.30
2022-10-22T11:50:41.127Z,2.50
2022-10-22T11:53:13.647Z,2.08
2022-10-22T11:55:39.948Z,2.50
2022-10-22T11:58:30.712Z,2.92
2022-10-22T12:00:58.762Z,2.40
2022-10-22T12:03:37.849Z,2.60
2022-10-22T12:06:09.909Z,2.05
2022-10-22T12:08:36.375Z,2.53
2022-10-22T12:11:12.610Z,2.45
2022-10-22T12:14:16.052Z,2.85
2022-10-22T12:16:58.121Z,2.53
2022-10-22T12:19:27.294Z,2.42
2022-10-22T12:21:57.545Z,2.45
2022-10-22T12:24:24.422Z,2.50
2022-10-22T12:26:50.808Z,3.05
2022-10-22T12:29:17.248Z,3.15
2022-10-22T12:31:44.447Z,2.85
2022-10-22T12:34:17.173Z,2.63
2022-10-22T12:36:43.935Z,3.03
2022-10-22T12:39:13.469Z,2.97
2022-10-22T12:44:06.318Z,3.40
2022-10-22T12:46:35.530Z,3.30
2022-10-22T12:49:03.488Z,3.05
2022-10-22T12:51:29.865Z,3.15
2022-10-22T12:53:59.918Z,2.78
2022-10-22T12:56:31.571Z,2.92
2022-10-22T12:59:00.267Z,2.47
2022-10-22T13:01:34.061Z,3.10
2022-10-22T13:04:17.140Z,2.50
2022-10-22T13:06:44.523Z,2.53
2022-10-22T13:09:25.155Z,2.55
2022-10-22T13:12:02.728Z,2.53
2022-10-22T13:14:32.453Z,2.30
2022-10-22T13:17:18.106Z,2.40
2022-10-22T13:19:53.519Z,2.28
2022-10-22T13:22:35.737Z,2.70
2022-10-22T13:25:18.150Z,2.55
2022-10-22T13:27:48.150Z,2.67
2022-10-22T13:30:25.684Z,2.20
2022-10-22T13:32:56.566Z,2.00
2022-10-22T13:35:27.766Z,2.33
2022-10-22T13:37:54.290Z,1.88
2022-10-22T13:40:20.925Z,2.20
2022-10-22T13:42:47.398Z,1.98
2022-10-22T13:45:13.842Z,1.88
2022-10-22T13:47:40.295Z,2.28
2022-10-22T13:50:12.836Z,1.92
2022-10-22T13:52:41.541Z,2.22
2022-10-22T13:55:17.235Z,2.20
2022-10-22T13:57:43.747Z,2.10
2022-10-22T14:00:17.997Z,2.25
2022-10-22T14:02:48.026Z,1.83
2022-10-22T14:05:15.359Z,2.13
2022-10-22T14:07:42.015Z,1.85
2022-10-22T14:10:23.928Z,2.63
2022-10-22T14:12:53.390Z,2.13
2022-10-22T14:15:23.483Z,3.50
2022-10-22T14:17:53.989Z,1.52
2022-10-22T14:20:21.719Z,1.70
2022-10-22T14:22:48.819Z,1.45
2022-10-22T14:25:25.278Z,1.60
2022-10-22T14:27:54.669Z,2.78
2022-10-22T14:30:24.703Z,2.20
2022-10-22T14:32:51.157Z,1.77
2022-10-22T14:35:19.712Z,1.98
2022-10-22T14:37:46.289Z,1.73
2022-10-22T14:40:14.061Z,1.65
2022-10-22T14:42:41.943Z,1.70
2022-10-22T14:45:22.526Z,2.00
2022-10-22T14:47:49.661Z,1.90
2022-10-22T14:50:16.511Z,1.77
2022-10-22T14:52:44.239Z,1.50
2022-10-22T14:55:15.093Z,2.00
2022-10-22T14:57:41.849Z,2.03
2022-10-22T15:00:17.703Z,1.83
2022-10-22T15:02:45.593Z,1.60
2022-10-22T15:05:12.046Z,1.70
2022-10-22T15:07:41.183Z,1.73
2022-10-22T15:10:08.382Z,1.80
2022-10-22T15:12:34.824Z,1.80
2022-10-22T15:15:01.262Z,1.52
2022-10-22T15:17:27.649Z,1.75
2022-10-22T15:19:54.043Z,1.90
2022-10-22T15:22:20.438Z,2.10
2022-10-22T15:24:46.961Z,2.08
2022-10-22T15:27:13.527Z,1.95
2022-10-22T15:29:40.498Z,1.98
2022-10-22T15:32:06.907Z,2.30
2022-10-22T15:34:34.446Z,2.08
2022-10-22T15:37:04.531Z,2.78
2022-10-22T15:39:31.013Z,2.28
2022-10-22T15:41:58.716Z,1.80
2022-10-22T15:44:26.727Z,2.15
2022-10-22T15:46:53.275Z,2.13
2022-10-22T15:49:19.671Z,2.33
2022-10-22T15:51:46.131Z,2.17
2022-10-22T15:54:20.767Z,2.35
2022-10-22T15:56:47.201Z,2.33
2022-10-22T15:59:14.573Z,2.90
2022-10-22T16:01:41.031Z,2.15
2022-10-22T16:04:07.527Z,3.45
2022-10-22T16:06:35.504Z,3.35
2022-10-22T16:09:03.424Z,2.80
2022-10-22T16:11:30.577Z,2.83
2022-10-22T16:13:57.455Z,2.95
2022-10-22T16:16:24.573Z,3.20
2022-10-22T16:18:51.210Z,3.10
2022-10-22T16:21:17.841Z,4.15
2022-10-22T16:23:44.449Z,2.92
2022-10-22T16:26:11.150Z,2.95
2022-10-22T16:28:37.542Z,3.15
2022-10-22T16:31:06.092Z,3.20
2022-10-22T16:33:41.217Z,3.20
2022-10-22T16:36:11.686Z,3.38
2022-10-22T16:38:38.298Z,3.05
2022-10-22T16:41:11.684Z,4.05
2022-10-22T16:43:39.937Z,3.42
2022-10-22T16:46:06.712Z,3.50
2022-10-22T16:48:33.373Z,3.35
2022-10-22T16:51:00.099Z,4.00
2022-10-22T16:53:31.274Z,4.20
2022-10-22T16:55:57.779Z,4.03
2022-10-22T16:58:24.166Z,4.03
2022-10-22T17:00:50.569Z,3.97
2022-10-22T17:03:17.001Z,4.20
2022-10-22T17:05:43.389Z,4.40
2022-10-22T17:08:09.787Z,4.05
2022-10-22T17:10:36.534Z,6.07
2022-10-22T17:13:03.846Z,4.85
2022-10-22T17:15:30.508Z,5.68
2022-10-22T17:17:58.959Z,5.63
2022-10-22T17:20:25.315Z,7.65
2022-10-22T17:22:51.719Z,7.25
2022-10-22T17:25:25.375Z,6.70
2022-10-22T17:27:51.919Z,5.95
2022-10-22T17:30:22.033Z,5.85
2022-10-22T17:32:51.456Z,4.72
2022-10-22T17:35:18.008Z,4.72
2022-10-22T17:37:44.595Z,4.72
2022-10-22T17:40:11.263Z,4.60
2022-10-22T17:42:37.665Z,4.03
2022-10-22T17:45:04.369Z,4.30
2022-10-22T17:47:30.788Z,3.97
2022-10-22T17:49:57.218Z,4.35
2022-10-22T17:52:23.645Z,4.47
2022-10-22T17:54:50.043Z,4.68
2022-10-22T17:57:16.454Z,4.80
2022-10-22T17:59:42.856Z,4.75
2022-10-22T18:02:16.629Z,5.15
2022-10-22T18:04:43.005Z,4.72
2022-10-22T18:07:09.418Z,5.13
2022-10-22T18:09:35.823Z,5.28
2022-10-22T18:12:02.222Z,4.57
2022-10-22T18:14:28.650Z,4.95
2022-10-22T18:16:55.036Z,5.20
2022-10-22T18:19:21.877Z,5.43
2022-10-22T18:21:48.276Z,5.72
2022-10-22T18:24:14.948Z,6.03
2022-10-22T18:26:41.758Z,4.65
2022-10-22T18:29:09.025Z,5.25
2022-10-22T18:31:36.662Z,5.45
2022-10-22T18:34:03.071Z,5.20
2022-10-22T18:36:29.460Z,4.72
2022-10-22T18:38:59.832Z,4.75
2022-10-22T18:41:26.503Z,4.38
2022-10-22T18:43:53.733Z,5.05
2022-10-22T18:46:20.245Z,5.28
2022-10-22T18:48:46.731Z,4.85
2022-10-22T18:51:13.822Z,4.90
2022-10-22T18:53:40.307Z,5.55
2022-10-22T18:56:08.278Z,4.70
2022-10-22T18:58:41.408Z,6.63
2022-10-22T19:01:09.337Z,4.50
2022-10-22T19:03:35.783Z,5.07
2022-10-22T19:06:02.189Z,5.53
2022-10-22T19:08:28.565Z,5.70
2022-10-22T19:10:55.055Z,5.75
2022-10-22T19:13:21.516Z,5.72
2022-10-22T19:15:48.171Z,5.18
2022-10-22T19:18:14.550Z,5.65
2022-10-22T19:20:41.157Z,5.13
2022-10-22T19:23:07.552Z,4.85
2022-10-22T19:25:34.604Z,4.97
2022-10-22T19:28:00.977Z,4.63
2022-10-22T19:30:27.385Z,4.78
2022-10-22T19:32:53.763Z,4.75
2022-10-22T19:35:20.163Z,4.93
2022-10-22T19:37:48.362Z,5.20
2022-10-22T19:40:15.150Z,5.20
2022-10-22T19:42:41.872Z,5.25
2022-10-22T19:45:08.923Z,4.82
2022-10-22T19:47:35.291Z,5.30
2022-10-22T19:50:01.671Z,4.93
2022-10-22T19:52:30.838Z,5.22
2022-10-22T19:54:57.233Z,4.32
2022-10-22T19:57:23.648Z,4.63
2022-10-22T19:59:50.048Z,5.47
2022-10-22T20:02:17.184Z,4.82
2022-10-22T20:04:47.925Z,5.25
2022-10-22T20:07:16.433Z,4.70
2022-10-22T20:09:42.830Z,5.20
2022-10-22T20:12:09.229Z,5.03
2022-10-22T20:14:35.594Z,6.45
2022-10-22T20:17:02.003Z,4.50
2022-10-22T20:19:28.384Z,5.20
2022-10-22T20:21:54.832Z,4.90
2022-10-22T20:24:21.295Z,5.13
2022-10-22T20:26:47.752Z,5.00
2022-10-22T20:29:14.267Z,4.93
2022-10-22T20:31:41.069Z,4.47
2022-10-22T20:34:07.452Z,4.70
2022-10-22T20:36:33.842Z,5.00
2022-10-22T20:39:01.956Z,4.90
2022-10-22T20:41:28.382Z,4.20
2022-10-22T20:43:55.017Z,4.13
2022-10-22T20:46:23.403Z,4.90
2022-10-22T20:49:04.403Z,4.07
2022-10-22T20:51:30.898Z,4.72
2022-10-22T20:53:57.381Z,4.50
2022-10-22T20:56:23.905Z,4.35
2022-10-22T20:58:50.489Z,4.10
2022-10-22T21:01:20.237Z,4.80
2022-10-22T21:03:51.401Z,4.75
2022-10-22T21:06:18.706Z,4.13
2022-10-22T21:08:45.171Z,4.32
2022-10-22T21:11:11.579Z,4.85
2022-10-22T21:13:38.077Z,5.00
2022-10-22T21:16:09.352Z,5.25
2022-10-22T21:18:35.974Z,4.55
2022-10-22T21:21:04.343Z,4.75
2022-10-22T21:23:31.351Z,5.13
2022-10-22T21:25:57.821Z,5.53
2022-10-22T21:28:24.457Z,4.72
2022-10-22T21:30:52.949Z,5.10
2022-10-22T21:33:19.702Z,4.70
2022-10-22T21:35:55.466Z,4.88
2022-10-22T21:38:23.644Z,4.82
2022-10-22T21:40:50.096Z,4.57
2022-10-22T21:43:17.714Z,5.18
2022-10-22T21:45:44.121Z,4.50
2022-10-22T21:48:12.157Z,4.93
2022-10-22T21:50:39.810Z,4.50
2022-10-22T21:53:06.638Z,5.47
2022-10-22T21:55:37.407Z,5.38
2022-10-22T21:58:05.144Z,4.47
2022-10-22T22:00:31.510Z,5.93
2022-10-22T22:02:57.909Z,7.43
2022-10-22T22:05:24.345Z,5.97
2022-10-22T22:07:50.788Z,5.55
2022-10-22T22:10:17.325Z,5.18
2022-10-22T22:12:44.022Z,6.30
2022-10-22T22:15:11.044Z,5.95
2022-10-22T22:17:37.454Z,4.80
2022-10-22T22:20:04.153Z,5.68
2022-10-22T22:22:30.515Z,4.97
2022-10-22T22:24:56.951Z,5.25
2022-10-22T22:27:23.326Z,6.07
2022-10-22T22:29:49.726Z,4.50
2022-10-22T22:32:16.109Z,5.22
2022-10-22T22:34:42.514Z,6.00
2022-10-22T22:37:10.267Z,5.60
2022-10-22T22:39:37.737Z,4.85
2022-10-22T22:42:04.181Z,5.50
2022-10-22T22:44:30.572Z,5.57
2022-10-22T22:46:56.967Z,4.90
2022-10-22T22:49:23.359Z,5.00
2022-10-22T22:51:49.727Z,5.53
2022-10-22T22:54:16.109Z,5.28
2022-10-22T22:56:42.547Z,5.93
2022-10-22T22:59:10.106Z,5.75
2022-10-22T23:01:37.631Z,4.70
2022-10-22T23:04:10.700Z,5.47
2022-10-22T23:06:37.146Z,5.72
2022-10-22T23:09:05.404Z,4.93
2022-10-22T23:11:32.300Z,5.30
2022-10-22T23:13:59.989Z,4.88
2022-10-22T23:16:28.582Z,5.50
2022-10-22T23:18:55.085Z,5.82
2022-10-22T23:21:24.162Z,5.35
2022-10-22T23:23:53.335Z,5.55
2022-10-22T23:26:22.078Z,6.13
2022-10-22T23:28:48.524Z,6.20
2022-10-22T23:31:17.580Z,6.55
2022-10-22T23:33:44.130Z,5.82
2022-10-22T23:36:10.570Z,5.60
2022-10-22T23:38:37.596Z,6.00
2022-10-22T23:41:04.355Z,7.47
2022-10-22T23:43:30.837Z,6.72
2022-10-22T23:45:57.285Z,6.80
2022-10-22T23:48:23.809Z,7.15
2022-10-22T23:50:50.313Z,6.93
2022-10-22T23:53:16.769Z,6.97
2022-10-22T23:55:43.462Z,6.95
2022-10-22T23:58:10.683Z,6.78
